• Join FlightAware (Why Join?)
  • Login
  • US Flag 
01:24AM EDT


 

Airport Tracker/Info


-or-


 

Live Flight TrackerFlight Track Log ✈ VOZ187 ✈ 17-Apr-2013 ✈ NZAA / AKL - YBBN / BNE

Flight Track Log - Related Links

Times and Time Zones

All times are in EDT time to prevent confusion due to time zone crossing. See the VOZ187 flight status page for this flight to view local times or setup timezone preferences in your user account.

Time Position Orientation Groundspeed Altitude Reporting Facility
EDT Latitude Longitude Course Direction KTS MPH feet Rate Location/Type
04:26PM -35.6775 163.2116 312° West 38,000  Level Aus ATC (Calculated)
04:27PM -35.6630 163.0972 313° West 38,000  Level Aus ATC (Calculated)
04:28PM -35.5959 163.0040 312° West  Level Estimated
04:29PM -35.5287 162.9109 312° West  Level Estimated
04:29PM -35.6244 162.7970 314° West 38,000  Level Aus ATC (Calculated)
04:30PM -35.6081 162.6720 315° West 38,000  Level Aus ATC (Calculated)
04:31PM -35.5360 162.5760 313° West  Level Estimated
04:31PM -35.5958 162.5783 315° West 38,000  Level Aus ATC (Calculated)
04:32PM -35.4639 162.4801 313° West  Level Estimated
04:33PM -35.4515 162.3882 313° West  Level Estimated
04:33PM -35.5585 162.2974 317° Northwest 38,000  Level Aus ATC (Calculated)
04:34PM -35.4853 162.2035 314° West  Level Estimated
04:35PM -35.4121 162.1098 314° West  Level Estimated
04:36PM -35.3387 162.0163 314° West  Level Estimated
04:36PM -35.2801 161.9758 317° Northwest 38,000  Level Aus ATC (Calculated)
04:37PM -35.1406 161.8158 317° Northwest 38,000  Level Aus ATC (Calculated)
04:39PM -35.0129 161.6536 314° West  Level Estimated
04:40PM -34.9404 161.5621 314° West  Level Estimated
04:41PM -34.8680 161.4707 314° West  Level Estimated
04:41PM -34.7909 161.4181 317° Northwest 38,000  Level Aus ATC (Calculated)
04:41PM -34.7909 161.4181 317° Northwest 38,000  Level Aus ATC (Calculated)
04:43PM -34.6992 161.3025 314° West  Level Estimated
04:44PM -34.6267 161.2114 314° West  Level Estimated
04:45PM -34.5541 161.1204 314° West  Level Estimated
04:46PM -34.4815 161.0296 314° West  Level Estimated
04:47PM -34.4088 160.9390 314° West  Level Estimated
04:48PM -34.3360 160.8485 314° West  Level Estimated
04:49PM -34.2632 160.7582 314° West  Level Estimated
04:50PM -34.1903 160.6680 314° West  Level Estimated
04:51PM -34.1174 160.5780 314° West  Level Estimated
04:52PM -34.0443 160.4882 314° West  Level Estimated
04:53PM -33.9713 160.3985 314° West  Level Estimated
04:54PM -33.8981 160.3089 315° West  Level Estimated
04:55PM -33.8249 160.2195 315° West  Level Estimated
04:56PM -33.7516 160.1303 315° West  Level Estimated
04:56PM -33.4503 159.9370 318° Northwest 38,000  Level Aus ATC (Calculated)
04:58PM -33.3147 159.7698 314° West  Level Estimated
04:58PM -33.2370 159.7073 318° Northwest 38,000  Level Aus ATC (Calculated)
05:00PM -33.1014 159.5405 314° West  Level Estimated
05:00PM -33.0945 159.5548 318° Northwest 38,000  Level Aus ATC (Calculated)
05:01PM -33.0287 159.4513 314° West  Level Estimated
05:02PM -32.9590 159.3882 314° West  Level Estimated
05:03PM -32.8863 159.2992 314° West  Level Estimated
05:04PM -32.8135 159.2103 314° West  Level Estimated
05:05PM -32.7407 159.1216 314° West  Level Estimated
05:06PM -32.6679 159.0329 314° West  Level Estimated
05:07PM -32.5949 158.9445 314° West  Level Estimated
05:08PM -32.5219 158.8562 314° West  Level Estimated
05:09PM -32.4488 158.7680 314° West  Level Estimated
05:10PM -32.3757 158.6800 315° West  Level Estimated
05:10PM -32.0922 158.5008 319° Northwest 38,000  Level Aus ATC (Calculated)
05:11PM -32.0203 158.4265 319° Northwest 38,000  Level Aus ATC (Calculated)
05:13PM -31.9175 158.3003 314° West  Level Estimated
05:14PM -31.8448 158.2114 314° West  Level Estimated
05:15PM -31.7721 158.1226 314° West  Level Estimated
05:16PM -31.6994 158.0340 314° West  Level Estimated
05:16PM -31.5155 157.9089 320° Northwest 38,000  Level Aus ATC (Calculated)
05:17PM -31.6265 157.9455 314° West  Level Estimated
05:18PM -31.4072 157.7753 314° West  Level Estimated
05:19PM -31.3350 157.6865 314° West  Level Estimated
05:20PM -31.2626 157.5978 314° West  Level Estimated
05:21PM -31.1903 157.5092 314° West  Level Estimated
05:21PM -31.0811 157.4696 321° Northwest 38,000  Level Aus ATC (Calculated)
05:22PM -31.1178 157.4208 314° West  Level Estimated
05:23PM -30.9724 157.3344 313° West  Level Estimated
05:24PM -30.9006 157.2454 313° West  Level Estimated
05:25PM -30.8288 157.1566 313° West  Level Estimated
05:26PM -30.7569 157.0679 313° West  Level Estimated
05:26PM -30.5572 156.9471 138° Southeast 38,000  Level Aus ATC (Calculated)
05:28PM -30.4498 156.8112 313° West  Level Estimated
05:29PM -30.3789 156.7218 313° West  Level Estimated
05:29PM -30.3309 156.7238 139° Southeast 38,000  Level Aus ATC (Calculated)
05:30PM -30.3079 156.6325 313° West  Level Estimated
05:31PM -30.2348 156.6009 312° West  Level Estimated
05:31PM -30.8335 157.2356 312° West 473 544 38,000  Level Aus ATC (RADAR)
05:32PM -30.7941 157.1810 310° West 372 428 38,000  Level Aus ATC (RADAR)
05:32PM -30.7749 157.1600 317° Northwest 372 428 38,000  Level Aus ATC (RADAR)
05:33PM -30.7277 157.1128 319° Northwest 373 429 38,000  Level Aus ATC (RADAR)
05:33PM -30.6519 157.0368 319° Northwest 377 434 38,000  Level Aus ATC (RADAR)
05:34PM -30.6035 156.9911 321° Northwest 379 436 38,000  Level Aus ATC (RADAR)
05:35PM -30.5281 156.9141 319° Northwest 379 436 38,000  Level Aus ATC (RADAR)
05:36PM -30.4775 156.8686 322° Northwest 381 438 38,000  Level Aus ATC (RADAR)
05:36PM -30.4540 156.8450 319° Northwest 383 441 38,000  Level FlightAware
05:37PM -30.4010 156.7930 320° Northwest 381 438 38,000  Level FlightAware
05:37PM -30.3892 156.7808 319° Northwest 376 433 38,000  Level Aus ATC (RADAR)
05:37PM -30.3460 156.7360 318° Northwest 381 438 38,000  Level FlightAware
05:38PM -30.3020 156.6890 317° Northwest 381 438 38,000  Level FlightAware
05:38PM -30.2463 156.6419 317° Northwest 373 429 38,000  Level Aus ATC (RADAR)
05:39PM -30.2570 156.6430 317° Northwest 381 438 38,000  Level FlightAware
05:39PM -30.2000 156.5949 317° Northwest 371 427 38,000  Level Aus ATC (RADAR)
05:39PM -30.2130 156.5970 317° Northwest 381 438 38,000  Level FlightAware
05:40PM -30.1222 156.5143 317° Northwest 368 423 38,000  Level Aus ATC (RADAR)
05:40PM -30.1570 156.5390 317° Northwest 381 438 38,000  Level FlightAware
05:41PM -30.0749 156.4691 317° Northwest 368 423 38,000  Level Aus ATC (RADAR)
05:41PM -30.1130 156.4920 317° Northwest 381 438 38,000  Level FlightAware
05:42PM -30.0680 156.4460 318° Northwest 381 438 38,000  Level FlightAware
05:42PM -29.9735 156.3721 318° Northwest 369 425 38,000  Level Aus ATC (RADAR)
05:42PM -30.0230 156.4000 318° Northwest 381 438 38,000 120 Level FlightAware
05:43PM -29.9143 156.3132 318° Northwest 368 423 38,100  Climbing Aus ATC (RADAR)
05:43PM -29.9790 156.3530 318° Northwest 381 438 38,000  Descending FlightAware
05:44PM -29.8337 156.2354 318° Northwest 368 423 38,100  Climbing Aus ATC (RADAR)
05:44PM -29.9230 156.2950 318° Northwest 381 438 38,000  Descending FlightAware
05:44PM -29.7873 156.1906 318° Northwest 366 421 38,100  Climbing Aus ATC (RADAR)
05:44PM -29.8790 156.2490 318° Northwest 381 438 38,000 -120 Descending FlightAware
05:45PM -29.8340 156.2030 318° Northwest 381 438 38,000 60 Level FlightAware
05:46PM -29.6601 156.0696 318° Northwest 366 421 38,100  Climbing Aus ATC (RADAR)
05:46PM -29.7900 156.1570 318° Northwest 381 438 38,000 -180 Descending FlightAware
05:46PM -29.7450 156.1100 318° Northwest 381 438 38,000 60 Level FlightAware
05:47PM -29.5667 155.9800 318° Northwest 367 422 38,100 120 Climbing Aus ATC (RADAR)
05:47PM -29.5466 155.9610 321° Northwest 366 421 38,100  Level Aus ATC (RADAR)
05:48PM -29.4999 155.9161 320° Northwest 368 423 38,100 -120 Level Aus ATC (RADAR)
05:48PM -29.4550 155.8720 320° Northwest 379 436 38,000  Descending FlightAware
05:49PM -29.4131 155.8319 320° Northwest 369 425 38,100  Climbing Aus ATC (RADAR)
05:49PM -29.4030 155.8210 320° Northwest 380 437 38,000  Descending FlightAware
05:49PM -29.3660 155.7864 320° Northwest 372 428 38,100  Climbing Aus ATC (RADAR)
05:50PM -29.3580 155.7760 320° Northwest 380 437 38,000  Descending FlightAware
05:50PM -29.2987 155.7213 320° Northwest 372 428 38,100  Climbing Aus ATC (RADAR)
05:50PM -29.2850 155.7100 320° Northwest 381 438 38,000  Descending FlightAware
05:51PM -29.2500 155.6771 320° Northwest 375 432 38,100  Climbing Aus ATC (RADAR)
05:51PM -29.2330 155.6590 320° Northwest 382 440 38,000 -120 Descending FlightAware
05:52PM -29.1870 155.6150 320° Northwest 382 440 38,000 60 Level FlightAware
05:52PM -29.1343 155.5660 320° Northwest 374 430 38,100  Climbing Aus ATC (RADAR)
05:53PM -29.1130 155.5460 320° Northwest 382 440 38,000 -120 Descending FlightAware
05:53PM -29.0630 155.4980 320° Northwest 381 438 38,000 60 Level FlightAware
05:54PM -28.9783 155.4182 320° Northwest 371 427 38,100  Climbing Aus ATC (RADAR)
05:54PM -28.9830 155.4220 320° Northwest 379 436 38,000  Descending FlightAware
05:55PM -28.9312 155.3737 320° Northwest 370 426 38,100  Climbing Aus ATC (RADAR)
05:55PM -28.9370 155.3780 320° Northwest 379 436 38,000 -180 Descending FlightAware
05:55PM -28.8920 155.3340 320° Northwest 379 436 38,000 120 Level FlightAware
05:56PM -28.8648 155.3107 320° Northwest 365 420 38,100  Climbing Aus ATC (RADAR)
05:56PM -28.8100 155.2580 321° Northwest 373 429 38,000  Descending FlightAware
05:57PM -28.7719 155.2225 321° Northwest 366 421 38,100  Climbing Aus ATC (RADAR)
05:57PM -28.7620 155.2130 321° Northwest 373 429 38,000  Descending FlightAware
05:57PM -28.7245 155.1794 321° Northwest 367 422 38,100 120 Climbing Aus ATC (RADAR)
05:58PM -28.7048 155.1605 320° Northwest 366 421 38,100 -300 Level Aus ATC (RADAR)
05:58PM -28.7170 155.1700 320° Northwest 373 429 38,000  Descending FlightAware
05:58PM -28.6589 155.1164 320° Northwest 364 419 38,100  Climbing Aus ATC (RADAR)
05:58PM -28.6430 155.1010 320° Northwest 375 432 38,000  Descending FlightAware
05:59PM -28.5848 155.0478 320° Northwest 369 425 38,100  Climbing Aus ATC (RADAR)
05:59PM -28.5880 155.0490 320° Northwest 377 434 38,000  Descending FlightAware
06:00PM -28.5380 155.0035 320° Northwest 370 426 38,100 -180 Climbing Aus ATC (RADAR)
06:00PM -28.5260 154.9920 320° Northwest 372 428 37,900 -600 Descending FlightAware
06:00PM -28.4760 154.9450 320° Northwest 339 390 37,600 -1,080 Descending FlightAware
06:01PM -28.4251 154.8973 320° Northwest 341 392 36,500 -1,680 Descending Aus ATC (RADAR)
06:01PM -28.4300 154.9010 320° Northwest 338 389 36,500 -1,680 Level FlightAware
06:02PM -28.3680 154.8440 321° Northwest 341 392 35,100 -1,620 Descending FlightAware
06:02PM -28.3512 154.8282 321° Northwest 343 395 34,800 -2,100 Descending Aus ATC (RADAR)
06:03PM -28.3140 154.7930 321° Northwest 353 406 33,700 -2,340 Descending FlightAware
06:03PM -28.2815 154.7638 321° Northwest 351 404 32,900 -1,800 Descending Aus ATC (RADAR)
06:03PM -28.2670 154.7500 321° Northwest 344 396 32,500 -1,620 Descending FlightAware
06:04PM -28.2180 154.7040 320° Northwest 340 391 31,400 -1,800 Descending FlightAware
06:05PM -28.1654 154.6556 320° Northwest 336 387 30,200 -1,800 Descending Aus ATC (RADAR)
06:05PM -28.1700 154.6590 320° Northwest 336 387 30,200 -1,860 Level FlightAware
06:05PM -28.1100 154.6040 321° Northwest 334 384 28,600 -1,920 Descending FlightAware
06:06PM -28.0630 154.5600 320° Northwest 332 382 27,400 -1,620 Descending FlightAware
06:07PM -28.0130 154.5140 321° Northwest 318 366 26,500 -1,440 Descending FlightAware
06:07PM -27.9836 154.4871 321° Northwest 312 359 25,900 -1,620 Descending Aus ATC (RADAR)
06:07PM -27.9668 154.4716 321° Northwest 310 357 25,500 -1,680 Descending Aus ATC (RADAR)
06:08PM -27.9450 154.4510 321° Northwest 300 345 24,900 -1,560 Descending FlightAware
06:08PM -27.9010 154.4100 321° Northwest 292 336 23,900 -1,500 Descending FlightAware
06:09PM -27.8648 154.3770 321° Northwest 294 338 23,100 -1,380 Descending Aus ATC (RADAR)
06:09PM -27.8680 154.3800 321° Northwest 292 336 23,100 -1,380 Level FlightAware
06:10PM -27.8282 154.3439 321° Northwest 289 333 22,300 -1,320 Descending Aus ATC (RADAR)
06:10PM -27.8160 154.3320 321° Northwest 279 321 22,000 -1,500 Descending FlightAware
06:10PM -27.7780 154.2960 320° Northwest 278 320 21,000 -1,500 Descending FlightAware
06:11PM -27.7321 154.2553 320° Northwest 278 320 20,100 -1,200 Descending Aus ATC (RADAR)
06:11PM -27.7350 154.2570 320° Northwest 272 313 20,100 -1,440 Level FlightAware
06:12PM -27.6890 154.2150 321° Northwest 274 315 19,000 -1,440 Descending FlightAware
06:12PM -27.6578 154.1869 321° Northwest 276 318 18,400 -1,200 Descending Aus ATC (RADAR)
06:13PM -27.6520 154.1810 321° Northwest 280 322 18,200 -1,560 Descending FlightAware
06:13PM -27.6207 154.1531 321° Northwest 291 335 17,500 -1,740 Descending Aus ATC (RADAR)
06:13PM -27.5970 154.1310 321° Northwest 318 366 16,900 -1,680 Descending FlightAware
06:14PM -27.5509 154.0892 321° Northwest 324 373 15,900 -1,680 Descending Aus ATC (RADAR)
06:14PM -27.5500 154.0880 321° Northwest 323 372 15,800 -1,680 Descending FlightAware
06:15PM -27.5210 154.0540 314° West 314 361 15,000 -1,500 Descending FlightAware
06:15PM -27.5160 154.0380 289° West 309 356 14,800 -1,560 Descending FlightAware
06:15PM -27.5040 153.9670 281° West 299 344 13,600 -1,500 Descending FlightAware
06:16PM -27.4950 153.9070 280° West 292 336 12,700 -1,440 Descending FlightAware
06:17PM -27.4840 153.8400 280° West 285 328 11,600 -1,440 Descending FlightAware
06:18PM -27.4740 153.7830 281° West 278 320 10,700 -1,380 Descending FlightAware
06:18PM -27.4694 153.7554 281° West 275 316 10,300 -1,440 Descending Aus ATC (RADAR)
06:18PM -27.4670 153.7400 281° West 274 315 10,000 -1,380 Descending FlightAware
06:18PM -27.4613 153.7064 281° West 270 311 9,500 -1,440 Descending Aus ATC (RADAR)
06:18PM -27.4620 153.7060 281° West 271 312 9,400 -1,320 Descending FlightAware
06:19PM -27.4550 153.6650 281° West 267 307 8,800 -1,320 Descending FlightAware
06:19PM -27.4490 153.6290 281° West 265 305 8,200 -1,440 Descending FlightAware
06:20PM -27.4420 153.5890 281° West 262 302 7,500 -1,320 Descending FlightAware
06:20PM -27.4350 153.5500 281° West 260 299 6,900 -1,320 Descending FlightAware
06:21PM -27.4300 153.5160 279° West 259 298 6,300 -1,140 Descending FlightAware
06:21PM -27.4180 153.4790 290° West 253 291 5,900 -780 Descending FlightAware
06:22PM -27.4070 153.4480 292° West 246 283 5,600 -1,020 Descending FlightAware
06:22PM -27.3950 153.4120 291° West 243 280 5,000 -1,020 Descending FlightAware
06:23PM -27.3830 153.3770 291° West 233 268 4,600 -600 Descending FlightAware
06:23PM -27.3733 153.3514 291° West 227 261 4,500 -420 Descending Aus ATC (RADAR)
06:23PM -27.3710 153.3450 291° West 220 253 4,400 -1,140 Descending FlightAware
06:24PM -27.3620 153.3190 291° West 214 246 3,900 -1,080 Descending FlightAware
06:24PM -27.3530 153.2930 291° West 209 241 3,500 -1,020 Descending FlightAware
06:25PM -27.3430 153.2650 292° West 199 229 3,000 -1,140 Descending FlightAware
06:25PM -27.3330 153.2350 291° West 180 207 2,400 -1,200 Descending FlightAware
06:25PM -27.3280 153.2180 288° West 167 192 2,000 -840 Descending FlightAware
06:26PM -27.3230 153.1950 284° West 158 182 1,700 -600 Descending FlightAware
06:26PM -27.3184 153.1761 284° West 151 174 1,500 -960 Descending Aus ATC (RADAR)
06:27PM -27.3270 153.1620 284° West 144 166 1,000 -1,020 Descending FlightAware
06:27PM -27.3440 153.1520 208° Southwest 140 161 600 -780 Descending FlightAware
06:28PM -27.3580 153.1440 207° Southwest 141 162 300 -540 Descending FlightAware
06:28PM -27.3719 153.1357 207° Southwest 143 165 200 -300 Descending Aus ATC (RADAR)
06:28PM -27.3760 153.1330 207° Southwest 145 167 -1,380 Descending FlightAware
06:29PM -27.3880 153.1260 207° Southwest 53 61  Level FlightAware
06:29PM -27.3900 153.1250 204° Southwest 38 44  Level FlightAware
06:29PM -27.3910 153.1230 241° Southwest 13 15  Level FlightAware
06:30PM -27.3930 153.1220 204° Southwest 18 21  Level FlightAware
06:30PM -27.3950 153.1200 222° Southwest 26 30  Level FlightAware